Terminal Aerodrome Forecast
Issued by NWS Wilmington, NC

Home | Current Version | Previous Version | Text Only | Print | Product List | Glossary On
Versions: 1 2 3 4 5 6 7 8 9 10 11 12 13 14 15 16 17
000
FTUS42 KILM 191700
TAFFLO
TAF
KFLO 191726Z 1918/2018 05006KT P6SM BKN250
     FM192300 06003KT P6SM BKN120
     FM200900 03003KT P6SM VCSH BKN050
     FM201400 04005KT 6SM -RA BR BKN025=

USA.gov is the U.S. government's official web portal to all federal, state and local government web resources and services.